Terminal Aerodrome Forecast
Issued by NWS Cleveland, OH

Home | Current Version | Previous Version | Text Only | Print | Product List | Glossary On
Versions: 1 2 3 4 5 6 7 8 9 10 11 12 13 14 15 16 17 18 19 20 21
513
FTUS41 KCLE 271135
TAFCAK
TAF
KCAK 271135Z 2712/2812 20007KT P6SM BKN080
     FM271600 20008KT P6SM VCSH OVC045
     FM272000 16005KT P6SM OVC025
     FM280800 14005KT 5SM BR SCT025 OVC050=

USA.gov is the U.S. government's official web portal to all federal, state and local government web resources and services.